• Join FlightAware (Why Join?)
  • Login
  • US Flag 
02:07PM EDT


 

Airport Tracker/Info


-or-


 

Live Flight TrackerFlight Track Log ✈ UAL1034 ✈ 26-Aug-2013 ✈ KIAH - MPTO / PTY

Flight Track Log - Related Links

Times and Time Zones

All times are in EDT time to prevent confusion due to time zone crossing. See the UAL1034 flight status page for this flight to view local times or setup timezone preferences in your user account.

Time Position Orientation Groundspeed Altitude Reporting Facility
EDT Latitude Longitude Course Direction KTS MPH feet Rate Location/Type
05:04PM 29.9525 -95.3362 265° West 179 206 800  Level FlightAware ADS-B
05:05PM 29.9444 -95.3280 139° Southeast 183 211 1,200 1,500 Climbing FlightAware ADS-B
05:05PM 29.9344 -95.3169 136° Southeast 201 231 1,500 1,500 Climbing FlightAware ADS-B
05:05PM 29.9253 -95.3066 136° Southeast 213 245 1,900 2,400 Climbing FlightAware ADS-B
05:05PM 29.9159 -95.2954 134° Southeast 214 246 2,600 2,760 Climbing FlightAware ADS-B
05:06PM 29.9052 -95.2821 133° Southeast 218 251 3,300 1,920 Climbing FlightAware ADS-B
05:06PM 29.8945 -95.2684 132° Southeast 238 274 3,600 1,860 Climbing FlightAware ADS-B
05:06PM 29.8836 -95.2541 131° Southeast 249 287 4,200 2,580 Climbing FlightAware ADS-B
05:06PM 29.8768 -95.2453 132° Southeast 250 288 4,600 2,280 Climbing FlightAware ADS-B
05:06PM 29.8738 -95.2421 137° Southeast 251 289 4,700 2,220 Climbing FlightAware ADS-B
05:06PM 29.8702 -95.2388 142° Southeast 253 291 4,900 2,400 Climbing FlightAware ADS-B
05:07PM 29.8644 -95.2342 145° Southeast 256 295 5,100 2,400 Climbing FlightAware ADS-B
05:07PM 29.8599 -95.2311 149° Southeast 257 296 5,300 2,820 Climbing FlightAware ADS-B
05:07PM 29.8436 -95.2210 152° Southeast 260 299 6,000 2,580 Climbing FlightAware ADS-B
05:07PM 29.8276 -95.2112 152° Southeast 265 305 6,600 2,640 Climbing FlightAware ADS-B
05:07PM 29.8134 -95.2023 151° Southeast 265 305 7,300 3,060 Climbing FlightAware ADS-B
05:08PM 29.7971 -95.1921 151° Southeast 263 303 8,100 2,760 Climbing FlightAware ADS-B
05:08PM 29.7805 -95.1816 151° Southeast 266 306 8,700 2,100 Climbing FlightAware ADS-B
05:08PM 29.7467 -95.1612 152° Southeast 280 322 9,700 1,620 Climbing FlightAware ADS-B
05:09PM 29.7101 -95.1385 152° Southeast 310 357 10,400 1,260 Climbing FlightAware ADS-B
05:09PM 29.6697 -95.1134 152° Southeast 337 388 11,000 1,980 Climbing FlightAware ADS-B
05:10PM 29.6281 -95.0875 152° Southeast 338 389 12,400 2,040 Climbing FlightAware ADS-B
05:10PM 29.5842 -95.0605 152° Southeast 360 414 13,100 1,560 Climbing FlightAware ADS-B
05:11PM 29.5387 -95.0327 152° Southeast 371 427 14,000 1,860 Climbing FlightAware ADS-B
05:11PM 29.4923 -95.0042 152° Southeast 381 438 15,000 2,040 Climbing FlightAware ADS-B
05:12PM 29.4446 -94.9751 152° Southeast 384 442 16,100 2,040 Climbing FlightAware ADS-B
05:12PM 29.3953 -94.9450 152° Southeast 390 449 17,100 1,800 Climbing FlightAware ADS-B
05:13PM 29.3313 -94.9057 152° Southeast 394 453 18,300 1,680 Climbing FlightAware ADS-B
05:14PM 29.2799 -94.8743 152° Southeast 407 468 19,100 1,500 Climbing FlightAware ADS-B
05:14PM 29.2653 -94.8652 151° Southeast 409 471 19,300 1,500 Climbing FlightAware ADS-B
05:14PM 29.2157 -94.8314 149° Southeast 415 478 20,100 1,560 Climbing FlightAware ADS-B
05:15PM 29.1644 -94.7964 149° Southeast 419 482 20,900 1,440 Climbing FlightAware ADS-B
05:15PM 29.1134 -94.7620 149° Southeast 425 489 21,600 1,260 Climbing FlightAware ADS-B
05:16PM 29.0558 -94.7231 149° Southeast 433 498 22,300 1,260 Climbing FlightAware ADS-B
05:16PM 28.9998 -94.6852 149° Southeast 438 504 23,000 1,200 Climbing FlightAware ADS-B
05:17PM 28.9469 -94.6493 149° Southeast 443 510 23,600 1,140 Climbing FlightAware ADS-B
05:17PM 28.8898 -94.6107 149° Southeast 447 514 24,200 1,080 Climbing FlightAware ADS-B
05:18PM 28.8323 -94.5720 149° Southeast 451 519 24,800 900 Climbing FlightAware ADS-B
05:18PM 28.7778 -94.5352 149° Southeast 455 524 25,200 840 Climbing FlightAware ADS-B
05:19PM 28.7190 -94.4957 149° Southeast 459 528 25,700 840 Climbing FlightAware ADS-B
05:20PM 28.6570 -94.4540 149° Southeast 464 534 26,200 360 Climbing FlightAware
05:20PM 28.5930 -94.4100 149° Southeast 464 534 26,200 900 Level FlightAware
05:21PM 28.5080 -94.3540 150° Southeast 470 541 27,400 1,440 Climbing FlightAware
05:21PM 28.4470 -94.3130 149° Southeast 473 544 27,900 360 Climbing FlightAware
05:22PM 28.3830 -94.2700 149° Southeast 473 544 27,900 780 Level FlightAware
05:23PM 28.3150 -94.2250 150° Southeast 479 551 28,800 780 Climbing FlightAware
05:23PM 28.2420 -94.1750 149° Southeast 479 551 28,900 60 Climbing FlightAware
05:24PM 28.1830 -94.1360 150° Southeast 479 551 28,900  Level FlightAware
05:25PM 28.1090 -94.0850 149° Southeast 479 551 28,900  Level FlightAware
05:25PM 28.0490 -94.0440 149° Southeast 479 551 28,900  Level FlightAware
05:26PM 27.9910 -94.0050 149° Southeast 479 551 28,900  Level FlightAware
05:27PM 27.9330 -93.9650 149° Southeast 479 551 28,900 2,040 Level FlightAware
05:28PM 27.7508 -93.7301 131° Southeast 478 550 33,000 1,980 Climbing FlightAware ADS-B
05:29PM 27.6849 -93.6680 140° Southeast 478 550 33,000  Level FlightAware ADS-B
05:30PM 27.6040 -93.5910 140° Southeast 478 550 33,000  Level FlightAware
05:30PM 27.5520 -93.5420 140° Southeast 478 550 33,000  Level FlightAware
05:31PM 27.5000 -93.4930 140° Southeast 478 550 33,000  Level FlightAware
05:31PM 27.4429 -93.4399 140° Southeast 476 548 33,000  Level FlightAware ADS-B
05:32PM 27.3950 -93.3930 139° Southeast 478 550 33,000  Level FlightAware
05:33PM 27.3430 -93.3440 140° Southeast 478 550 33,000  Level FlightAware
05:33PM 27.2910 -93.2950 140° Southeast 478 550 33,000  Level FlightAware
05:34PM 27.2390 -93.2470 141° Southeast 478 550 33,000  Level FlightAware
05:34PM 27.1880 -93.1980 139° Southeast 478 550 33,000  Level FlightAware
05:35PM 27.1360 -93.1490 140° Southeast 478 550 33,000  Level FlightAware
05:36PM 27.0840 -93.1000 140° Southeast 478 550 33,000  Level FlightAware
05:36PM 27.0320 -93.0510 140° Southeast 478 550 33,000  Level FlightAware
05:37PM 26.9800 -93.0020 140° Southeast 478 550 33,000  Level FlightAware
05:37PM 26.9280 -92.9530 140° Southeast 478 550 33,000  Level FlightAware
05:38PM 26.8760 -92.9050 141° Southeast 478 550 33,000  Level FlightAware
05:39PM 26.6486 -92.7381 141° Southeast 480 552 33,000 -60 Level Houston Center
05:40PM 26.5339 -92.6672 151° Southeast 478 550 32,900 60 Descending Houston Center
05:42PM 26.3469 -92.5288 150° Southeast  Level FlightAware Approximate
05:49PM 25.6065 -92.0510 149° Southeast  Level FlightAware Approximate
05:50PM 25.5012 -91.9820 149° Southeast  Level FlightAware Approximate
05:51PM 25.3959 -91.9132 149° Southeast  Level FlightAware Approximate
05:52PM 25.2906 -91.8445 149° Southeast  Level FlightAware Approximate
05:53PM 25.1852 -91.7759 150° Southeast  Level FlightAware Approximate
05:54PM 25.0798 -91.7075 150° Southeast  Level FlightAware Approximate
05:55PM 24.9744 -91.6391 150° Southeast  Level FlightAware Approximate
05:56PM 24.8689 -91.5709 150° Southeast  Level FlightAware Approximate
05:57PM 24.7634 -91.5028 150° Southeast  Level FlightAware Approximate
05:58PM 24.6579 -91.4348 150° Southeast  Level FlightAware Approximate
05:59PM 24.5523 -91.3669 150° Southeast  Level FlightAware Approximate
06:00PM 24.4555 -91.2864 136° Southeast  Level FlightAware Approximate
06:01PM 24.3671 -91.1935 136° Southeast  Level FlightAware Approximate
06:02PM 24.2788 -91.1008 136° Southeast  Level FlightAware Approximate
06:02PM 24.0290 -90.9190 136° Southeast 487 560 34,500  Level FlightAware
06:02PM 23.9630 -90.8610 141° Southeast 493 567 34,800 240 Climbing FlightAware
06:03PM 23.9120 -90.8160 141° Southeast 493 567 34,800 120 Level FlightAware
06:03PM 23.8400 -90.7540 142° Southeast 488 562 35,000 120 Climbing FlightAware
06:04PM 23.7900 -90.7100 141° Southeast 488 562 35,000  Level FlightAware
06:05PM 23.7170 -90.6460 141° Southeast 488 562 35,000  Level FlightAware
06:05PM 23.6570 -90.5930 141° Southeast 488 562 35,000  Level FlightAware
06:06PM 23.5830 -90.5290 142° Southeast 486 559 35,000  Level FlightAware
06:07PM 23.5060 -90.4620 141° Southeast 483 556 35,000  Level FlightAware
06:07PM 23.4480 -90.4120 142° Southeast 482 555 35,000  Level FlightAware
06:08PM 23.3840 -90.3560 141° Southeast 480 552 35,000  Level FlightAware
06:08PM 23.3290 -90.3080 141° Southeast 480 552 35,000  Level FlightAware
06:09PM 23.2590 -90.2480 142° Southeast 478 550 35,000  Level FlightAware
06:10PM 23.2040 -90.2010 142° Southeast 478 550 35,000  Level FlightAware
06:10PM 23.1430 -90.1480 141° Southeast 478 550 35,000  Level FlightAware
06:10PM 23.1100 -90.1200 142° Southeast 478 550 35,000  Level FlightAware
06:11PM 23.0240 -90.0460 142° Southeast 479 551 35,000  Level FlightAware
06:12PM 22.9710 -90.0000 141° Southeast 480 552 35,000  Level FlightAware
06:12PM 22.9080 -89.9460 142° Southeast 480 552 35,000  Level FlightAware
06:13PM 22.8460 -89.8930 142° Southeast 481 554 35,000  Level FlightAware
06:14PM 22.7830 -89.8390 142° Southeast 478 550 35,000  Level FlightAware
06:14PM 22.7230 -89.7880 142° Southeast 476 548 35,000  Level FlightAware
06:15PM 22.6610 -89.7340 141° Southeast 476 548 35,000  Level FlightAware
06:15PM 22.6020 -89.6840 142° Southeast 476 548 35,000  Level FlightAware
06:16PM 22.5460 -89.6360 142° Southeast 476 548 35,000  Level FlightAware
06:17PM 22.4760 -89.5770 142° Southeast 474 545 35,000  Level FlightAware
06:17PM 22.4210 -89.5300 142° Southeast 474 545 35,000  Level FlightAware
06:18PM 22.3590 -89.4770 142° Southeast 474 545 35,000  Level FlightAware
06:18PM 22.3040 -89.4300 142° Southeast 474 545 35,000  Level FlightAware
06:19PM 22.2390 -89.3750 142° Southeast 474 545 35,000  Level FlightAware
06:19PM 22.1830 -89.3280 142° Southeast 474 545 35,000  Level FlightAware
06:20PM 22.1240 -89.2770 141° Southeast 474 545 35,000  Level FlightAware
06:21PM 22.0570 -89.2220 143° Southeast 475 547 35,000  Level FlightAware
06:21PM 22.0000 -89.1630 136° Southeast 471 542 35,000  Level FlightAware
06:22PM 21.9450 -89.0980 132° Southeast 472 543 35,000  Level FlightAware
06:22PM 21.8990 -89.0420 132° Southeast 473 544 35,000  Level FlightAware
06:23PM 21.8510 -88.9850 132° Southeast 474 545 35,000  Level FlightAware
06:23PM 21.7960 -88.9190 132° Southeast 475 547 35,000  Level FlightAware
06:24PM 21.7430 -88.8540 131° Southeast 475 547 35,000  Level FlightAware
06:25PM 21.6930 -88.7950 132° Southeast 473 544 35,000  Level FlightAware
06:25PM 21.6420 -88.7340 132° Southeast 473 544 35,000  Level FlightAware
06:26PM 21.5880 -88.6700 132° Southeast 472 543 35,000  Level FlightAware
06:26PM 21.5420 -88.6140 131° Southeast 472 543 35,000  Level FlightAware
06:27PM 21.4890 -88.5520 133° Southeast 470 541 35,000  Level FlightAware
06:28PM 21.4360 -88.4880 132° Southeast 471 542 35,000  Level FlightAware
06:28PM 21.3880 -88.4320 133° Southeast 472 543 35,000  Level FlightAware
06:29PM 21.3360 -88.3690 132° Southeast 473 544 35,000  Level FlightAware
06:29PM 21.2900 -88.3150 132° Southeast 472 543 35,000  Level FlightAware
06:30PM 21.2300 -88.2450 133° Southeast 472 543 35,000  Level FlightAware
06:30PM 21.1810 -88.1870 132° Southeast 471 542 35,000  Level FlightAware
06:31PM 21.1190 -88.1300 139° Southeast 476 548 35,000  Level FlightAware
06:32PM 21.0650 -88.0870 143° Southeast 476 548 35,000  Level FlightAware
06:32PM 20.9990 -88.0360 144° Southeast 476 548 35,000  Level FlightAware
06:33PM 20.9340 -87.9860 144° Southeast 475 547 35,000  Level FlightAware
06:33PM 20.8680 -87.9360 145° Southeast 475 547 35,000  Level FlightAware
06:34PM 20.8130 -87.8930 144° Southeast 475 547 35,000  Level FlightAware
06:35PM 20.7440 -87.8400 144° Southeast 474 545 35,000  Level FlightAware
06:35PM 20.6830 -87.7930 144° Southeast 475 547 35,000  Level FlightAware
06:36PM 20.6230 -87.7470 144° Southeast 474 545 35,000  Level FlightAware
06:36PM 20.5590 -87.6970 144° Southeast 474 545 35,000  Level FlightAware
06:37PM 20.4950 -87.6480 144° Southeast 474 545 35,000  Level FlightAware
06:37PM 20.4400 -87.6060 144° Southeast 475 547 35,000  Level FlightAware
06:38PM 20.3700 -87.5520 144° Southeast 476 548 35,000  Level FlightAware
06:39PM 20.3120 -87.5080 145° Southeast 476 548 35,000  Level FlightAware
06:39PM 20.2510 -87.4610 144° Southeast 476 548 35,000  Level FlightAware
06:40PM 20.1880 -87.4130 144° Southeast 475 547 35,000  Level FlightAware
06:40PM 20.1230 -87.3630 144° Southeast 474 545 35,000  Level FlightAware
06:41PM 20.0620 -87.3160 144° Southeast 473 544 35,000  Level FlightAware
06:42PM 19.9980 -87.2680 145° Southeast 472 543 35,000  Level FlightAware
06:42PM 19.9350 -87.2200 144° Southeast 471 542 35,000  Level FlightAware
06:43PM 19.8700 -87.1700 144° Southeast 469 540 35,000  Level FlightAware
06:43PM 19.8120 -87.1260 144° Southeast 469 540 35,000  Level FlightAware
06:44PM 19.7460 -87.0760 145° Southeast 468 539 35,000  Level FlightAware
06:44PM 19.6880 -87.0320 144° Southeast 470 541 35,000  Level FlightAware
06:45PM 19.6250 -86.9840 144° Southeast 470 541 35,000  Level FlightAware
06:46PM 19.5600 -86.9350 145° Southeast 470 541 35,000  Level FlightAware
06:46PM 19.4980 -86.8880 144° Southeast 470 541 35,000  Level FlightAware
06:47PM 19.4340 -86.8400 145° Southeast 470 541 35,000  Level FlightAware
06:47PM 19.3850 -86.8030 145° Southeast 470 541 35,000  Level FlightAware
06:48PM 19.2990 -86.7380 144° Southeast 469 540 35,000  Level FlightAware
06:49PM 19.2350 -86.6900 145° Southeast 469 540 35,000  Level FlightAware
06:49PM 19.1870 -86.6530 144° Southeast 469 540 35,000  Level FlightAware
06:50PM 19.1150 -86.5990 145° Southeast 468 539 35,000  Level FlightAware
06:50PM 19.0540 -86.5530 145° Southeast 469 540 35,000  Level FlightAware
06:51PM 18.9900 -86.5060 145° Southeast 469 540 35,000  Level FlightAware
06:52PM 18.9300 -86.4610 145° Southeast 468 539 35,000  Level FlightAware
06:52PM 18.8660 -86.4130 145° Southeast 469 540 35,000  Level FlightAware
06:53PM 18.8030 -86.3660 145° Southeast 469 540 35,000  Level FlightAware
06:53PM 18.7450 -86.3220 144° Southeast 468 539 35,000  Level FlightAware
06:54PM 18.6810 -86.2740 145° Southeast 466 536 35,000  Level FlightAware
06:55PM 18.6220 -86.2310 145° Southeast 465 535 35,000  Level FlightAware
06:55PM 18.5620 -86.1860 145° Southeast 465 535 35,000  Level FlightAware
06:56PM 18.5050 -86.1440 145° Southeast 466 536 35,000  Level FlightAware
06:56PM 18.4480 -86.1000 144° Southeast 466 536 35,000  Level FlightAware
06:57PM 18.3950 -86.0590 144° Southeast 466 536 35,000  Level FlightAware
06:57PM 18.3420 -86.0190 144° Southeast 466 536 35,000  Level FlightAware
06:58PM 18.2910 -85.9800 144° Southeast 466 536 35,000  Level FlightAware
06:59PM 18.2380 -85.9390 144° Southeast 466 536 35,000  Level FlightAware
06:59PM 18.1850 -85.8980 144° Southeast 466 536 35,000  Level FlightAware
07:00PM 18.1310 -85.8580 145° Southeast 466 536 35,000  Level FlightAware
07:00PM 18.0780 -85.8170 144° Southeast 466 536 35,000  Level FlightAware
07:01PM 18.0240 -85.7760 144° Southeast 466 536 35,000  Level FlightAware
07:02PM 17.9710 -85.7350 144° Southeast 466 536 35,000  Level FlightAware
07:02PM 17.9160 -85.6930 144° Southeast 466 536 35,000  Level FlightAware
07:03PM 17.8630 -85.6530 144° Southeast 466 536 35,000  Level FlightAware
07:03PM 17.8090 -85.6120 144° Southeast 466 536 35,000  Level FlightAware
07:04PM 17.7560 -85.5710 144° Southeast 466 536 35,000  Level FlightAware
07:05PM 17.7030 -85.5300 144° Southeast 466 536 35,000  Level FlightAware
07:05PM 17.6490 -85.4900 145° Southeast 466 536 35,000  Level FlightAware
07:08PM 17.4144 -85.3149 145° Southeast  Level Estimated
07:09PM 17.3108 -85.2378 145° Southeast  Level Estimated
07:10PM 17.2072 -85.1607 145° Southeast  Level Estimated
07:11PM 17.1036 -85.0838 145° Southeast  Level Estimated
07:12PM 17.0000 -85.0069 145° Southeast  Level Estimated
07:13PM 16.8963 -84.9302 145° Southeast  Level Estimated
07:14PM 16.7926 -84.8535 145° Southeast  Level Estimated
07:15PM 16.6889 -84.7769 145° Southeast  Level Estimated
07:16PM 16.5851 -84.7004 145° Southeast  Level Estimated
07:17PM 16.4813 -84.6239 145° Southeast  Level Estimated
07:18PM 16.3775 -84.5476 145° Southeast  Level Estimated
07:19PM 16.2737 -84.4713 145° Southeast  Level Estimated
07:20PM 16.1698 -84.3951 145° Southeast  Level Estimated
07:21PM 16.0659 -84.3190 145° Southeast  Level Estimated
07:22PM 15.9620 -84.2430 145° Southeast  Level Estimated
07:23PM 15.8581 -84.1670 145° Southeast  Level Estimated
07:24PM 15.7541 -84.0911 145° Southeast  Level Estimated
07:25PM 15.6501 -84.0153 145° Southeast  Level Estimated
07:26PM 15.5461 -83.9396 145° Southeast  Level Estimated
07:27PM 15.4420 -83.8640 145° Southeast  Level Estimated
07:28PM 15.3379 -83.7884 145° Southeast  Level Estimated
07:29PM 15.2338 -83.7129 145° Southeast  Level Estimated
07:30PM 15.1297 -83.6375 145° Southeast  Level Estimated
07:31PM 15.0256 -83.5622 145° Southeast  Level Estimated
07:32PM 14.9214 -83.4869 145° Southeast  Level Estimated
07:33PM 14.8172 -83.4117 145° Southeast  Level Estimated
07:34PM 14.7129 -83.3366 145° Southeast  Level Estimated
07:35PM 14.6087 -83.2615 145° Southeast  Level Estimated
07:36PM 14.5044 -83.1865 145° Southeast  Level Estimated
07:37PM 14.4001 -83.1116 145° Southeast  Level Estimated
07:38PM 14.2958 -83.0368 145° Southeast  Level Estimated
07:39PM 14.1915 -82.9620 145° Southeast  Level Estimated
07:40PM 14.0871 -82.8873 145° Southeast  Level Estimated
07:41PM 13.9827 -82.8127 145° Southeast  Level Estimated
07:42PM 13.8783 -82.7381 145° Southeast  Level Estimated
07:43PM 13.7738 -82.6636 145° Southeast  Level Estimated
07:44PM 13.6694 -82.5892 145° Southeast  Level Estimated
07:45PM 13.5649 -82.5148 145° Southeast  Level Estimated
07:46PM 13.4604 -82.4405 145° Southeast  Level Estimated
07:47PM 13.3559 -82.3662 145° Southeast  Level Estimated
07:48PM 13.2503 -82.2914 145° Southeast  Level Estimated
07:49PM 13.1447 -82.2165 145° Southeast  Level Estimated
07:50PM 13.0391 -82.1417 145° Southeast  Level Estimated
07:51PM 12.9335 -82.0670 145° Southeast  Level Estimated
07:52PM 12.8278 -81.9924 145° Southeast  Level Estimated
07:53PM 12.7221 -81.9178 145° Southeast  Level Estimated
07:54PM 12.6165 -81.8433 145° Southeast  Level Estimated
07:55PM 12.5107 -81.7689 145° Southeast  Level Estimated
07:56PM 12.4050 -81.6945 146° Southeast  Level Estimated
07:57PM 12.2992 -81.6201 146° Southeast  Level Estimated
07:58PM 12.1934 -81.5459 146° Southeast  Level Estimated
07:59PM 12.0877 -81.4716 146° Southeast  Level Estimated
08:00PM 11.9818 -81.3975 146° Southeast  Level Estimated
08:01PM 11.8760 -81.3234 146° Southeast  Level Estimated
08:02PM 11.7701 -81.2493 146° Southeast  Level Estimated
08:03PM 11.6643 -81.1754 146° Southeast  Level Estimated
08:04PM 11.5584 -81.1014 146° Southeast  Level Estimated
08:05PM 11.4525 -81.0276 146° Southeast  Level Estimated
08:06PM 11.3465 -80.9537 146° Southeast  Level Estimated
08:07PM 11.2406 -80.8800 146° Southeast  Level Estimated
08:08PM 11.1346 -80.8063 146° Southeast  Level Estimated
08:09PM 11.0286 -80.7326 146° Southeast  Level Estimated
08:09PM 10.8780 -80.7270 146° Southeast 446 513 35,000  Level FlightAware
08:09PM 10.8130 -80.6900 151° Southeast 445 512 35,000  Level FlightAware
08:10PM 10.7500 -80.6540 151° Southeast 444 511 35,000  Level FlightAware
08:11PM 10.6860 -80.6160 150° Southeast 444 511 35,000  Level FlightAware
08:11PM 10.6010 -80.5700 152° Southeast 440 506 35,000 -120 Level FlightAware
08:12PM 10.5270 -80.5280 151° Southeast 440 506 34,900 -600 Descending FlightAware
08:13PM 10.4500 -80.4850 151° Southeast 428 493 34,200 -660 Descending FlightAware
08:13PM 10.4020 -80.4580 151° Southeast 428 493 34,100 -120 Descending FlightAware
08:14PM 10.3490 -80.4270 150° Southeast 428 493 34,100  Level FlightAware
08:14PM 10.2970 -80.3960 150° Southeast 428 493 34,100  Level FlightAware
08:15PM 10.2460 -80.3660 150° Southeast 428 493 34,100  Level FlightAware
08:16PM 10.1940 -80.3350 150° Southeast 428 493 34,100 -2,880 Level FlightAware
08:16PM 10.0790 -80.2790 154° Southeast 439 505 30,800 -2,820 Descending FlightAware
08:17PM 10.0000 -80.2340 151° Southeast 437 503 30,400 -300 Descending FlightAware
08:18PM 9.9450 -80.2030 151° Southeast 437 503 30,400  Level FlightAware
08:18PM 9.8910 -80.1730 151° Southeast 437 503 30,400 -4,260 Level FlightAware
08:19PM 9.8080 -80.1280 152° Southeast 407 468 25,300 -5,340 Descending FlightAware
08:19PM 9.7530 -80.0970 151° Southeast 392 451 24,100 -1,320 Descending FlightAware
08:20PM 9.6980 -80.0650 150° Southeast 392 451 23,700 -2,100 Descending FlightAware
08:21PM 9.6280 -80.0270 152° Southeast 385 443 21,500 -2,880 Descending FlightAware
08:21PM 9.5750 -79.9980 152° Southeast 372 428 20,300 -2,040 Descending FlightAware
08:22PM 9.5120 -79.9630 151° Southeast 371 427 19,000 -1,920 Descending FlightAware
08:22PM 9.4520 -79.9300 152° Southeast 354 407 17,800 -1,920 Descending FlightAware
08:23PM 9.4020 -79.9020 151° Southeast 353 406 16,700 -1,920 Descending FlightAware
08:24PM 9.3440 -79.8700 151° Southeast 335 386 15,400 -1,320 Descending FlightAware
08:24PM 9.2980 -79.8440 151° Southeast 313 360 15,100 -300 Descending FlightAware
08:25PM 9.2560 -79.8210 152° Southeast 278 320 15,100 -1,080 Level FlightAware
08:25PM 9.2170 -79.8000 152° Southeast 276 318 13,900 -2,400 Descending FlightAware
08:26PM 9.1760 -79.7770 151° Southeast 292 336 12,300 -1,680 Descending FlightAware
08:27PM 9.1260 -79.7490 151° Southeast 296 341 11,600 -540 Descending FlightAware
08:27PM 9.0890 -79.7270 150° Southeast 296 341 11,600  Level FlightAware
08:28PM 9.0530 -79.7060 150° Southeast 296 341 11,600 -1,980 Level FlightAware
08:30PM 8.9350 -79.6430 152° Southeast 6,600 -2,520 Descending FlightAware
08:30PM 8.9140 -79.6300 149° Southeast 221 254 6,000 -1,500 Descending FlightAware
08:31PM 8.9070 -79.6210 128° Southeast 225 259 5,700 -840 Descending FlightAware
08:31PM 8.8920 -79.5920 118° Southeast 225 259 5,400 -1,500 Descending FlightAware
08:31PM 8.8960 -79.5860 56° Northeast 211 243 4,900 -1,080 Descending FlightAware
08:31PM 8.8900 -79.5650 106° East 211 243 4,900 -960 Level FlightAware
08:34PM 9.0714 -79.3835 31° Northeast  Level Estimated
08:35PM 9.0714 -79.3835 31° Northeast  Level Estimated
08:35PM 8.9780 -79.4320 31° Northeast 1,700  Level FlightAware
08:35PM 8.9950 -79.4230 28° Northeast 185 213 1,300 -1,020 Descending FlightAware
08:35PM 9.0010 -79.4190 33° Northeast 154 177 1,200 -900 Descending FlightAware
08:36PM 9.0180 -79.4090 30° Northeast 151 174 800 -960 Descending FlightAware
08:36PM 9.0310 -79.4020 28° Northeast 138 159 500 -900 Descending FlightAware
08:36PM 9.0420 -79.3950 32° Northeast 145 167 200 -780 Descending FlightAware
08:36PM 9.0490 -79.3920 23° Northeast 150 173 100 -600 Descending FlightAware